Time;durP1;ratioP1;P1;durP2;ratioP2;P2;SDS_P1;SDS_P2;PMS_P1;PMS_P2;Temp;Humidity;BMP_temperature;BMP_pressure;BME280_temperature;BME280_humidity;BME280_pressure;Samples;Min_cycle;Max_cycle;Signal;HPM_P1;HPM_P2
2022/08/06 00:01:49;;;;;;;3.08;2.75;;;28.80;62.00;;;;;;5135051;27;20023;-68
2022/08/06 00:04:15;;;;;;;2.78;2.53;;;28.70;62.30;;;;;;5135786;27;20100;-68
2022/08/06 00:06:41;;;;;;;3.10;2.60;;;28.60;62.80;;;;;;5135749;27;20506;-68
2022/08/06 00:09:07;;;;;;;3.03;2.50;;;28.60;63.10;;;;;;5135806;27;20102;-68
2022/08/06 00:11:33;;;;;;;2.78;2.30;;;28.40;62.90;;;;;;5135729;27;20111;-68
2022/08/06 00:13:59;;;;;;;2.80;2.30;;;28.40;63.30;;;;;;5135189;27;20110;-68
2022/08/06 00:16:25;;;;;;;2.33;2.13;;;28.30;63.60;;;;;;5135656;27;20019;-68
2022/08/06 00:18:51;;;;;;;3.05;2.75;;;28.30;63.60;;;;;;5135211;27;20114;-69
2022/08/06 00:21:17;;;;;;;2.90;2.42;;;28.30;64.00;;;;;;5134431;27;20028;-68
2022/08/06 00:23:43;;;;;;;2.60;2.40;;;28.20;64.10;;;;;;5133505;27;20030;-68
2022/08/06 00:26:09;;;;;;;2.60;2.20;;;28.20;64.20;;;;;;5135293;27;20023;-68
2022/08/06 00:28:35;;;;;;;2.72;2.53;;;28.10;64.60;;;;;;5135450;27;20517;-68
2022/08/06 00:31:03;;;;;;;2.63;2.28;;;28.10;64.90;;;;;;5135071;27;20425;-68
2022/08/06 00:33:29;;;;;;;3.25;2.13;;;28.00;65.10;;;;;;5135613;27;20059;-68
2022/08/06 00:35:55;;;;;;;3.78;2.58;;;28.00;65.10;;;;;;5134702;27;20532;-68
2022/08/06 00:38:21;;;;;;;2.65;2.38;;;28.00;65.10;;;;;;5134537;27;20110;-68
2022/08/06 00:40:48;;;;;;;2.55;2.35;;;28.00;64.70;;;;;;5122619;27;20028;-68
2022/08/06 00:43:15;;;;;;;2.80;2.60;;;28.00;64.40;;;;;;5124353;27;20027;-68
2022/08/06 00:45:40;;;;;;;3.47;1.90;;;27.90;63.90;;;;;;5116856;27;20161;-68
2022/08/06 00:48:06;;;;;;;3.92;2.58;;;27.90;62.90;;;;;;5119638;27;20110;-68
2022/08/06 00:50:33;;;;;;;2.47;2.20;;;27.90;62.70;;;;;;5128243;27;20478;-68
2022/08/06 00:52:59;;;;;;;2.88;2.10;;;27.90;62.50;;;;;;5133440;27;20046;-68
2022/08/06 00:55:25;;;;;;;2.85;2.20;;;27.90;62.40;;;;;;5134083;27;20479;-68
2022/08/06 00:57:51;;;;;;;2.35;2.03;;;27.80;62.60;;;;;;5133760;27;20031;-69
2022/08/06 01:00:16;;;;;;;3.03;2.50;;;27.80;62.40;;;;;;5134349;27;20523;-68
2022/08/06 01:02:42;;;;;;;3.88;1.80;;;27.80;61.90;;;;;;5134313;27;20420;-69
2022/08/06 01:05:08;;;;;;;2.20;2.00;;;27.80;61.80;;;;;;5133559;27;20031;-69
2022/08/06 01:07:33;;;;;;;4.55;2.30;;;27.80;61.80;;;;;;5134290;27;20027;-70
2022/08/06 01:09:59;;;;;;;2.10;1.85;;;27.80;61.60;;;;;;5133458;27;20456;-70
2022/08/06 01:12:26;;;;;;;2.30;2.10;;;27.70;61.70;;;;;;5133749;27;20456;-70
2022/08/06 01:14:52;;;;;;;2.35;2.10;;;27.70;62.00;;;;;;5134319;27;20027;-70
2022/08/06 01:17:30;;;;;;;2.63;2.42;;;27.70;62.20;;;;;;5134707;27;20448;-70
2022/08/06 01:20:30;;;;;;;3.88;2.17;;;27.60;62.30;;;;;;5134308;27;20031;-70
2022/08/06 01:23:25;;;;;;;2.75;2.00;;;27.60;62.70;;;;;;5128893;27;20038;-71
2022/08/06 01:26:07;;;;;;;2.28;1.75;;;27.60;62.80;;;;;;5134143;27;20082;-71
2022/08/06 01:28:39;;;;;;;2.28;1.70;;;27.50;62.60;;;;;;5133456;27;20027;-72
2022/08/06 01:31:17;;;;;;;2.47;2.20;;;27.50;65.70;;;;;;5133080;27;20043;-72
2022/08/06 01:33:57;;;;;;;2.05;1.92;;;27.50;64.50;;;;;;5133545;27;20102;-72
2022/08/06 01:36:40;;;;;;;2.60;2.00;;;27.40;63.10;;;;;;5134453;27;20027;-72
2022/08/06 01:39:06;;;;;;;4.55;2.50;;;27.50;63.70;;;;;;5133054;27;20525;-73
2022/08/06 01:41:44;;;;;;;2.28;1.95;;;27.40;63.20;;;;;;5134564;27;20027;-72
2022/08/06 01:44:14;;;;;;;2.30;2.10;;;27.40;63.50;;;;;;5132983;27;20027;-73
2022/08/06 01:46:44;;;;;;;2.67;2.10;;;27.40;64.00;;;;;;5133011;27;20490;-72
2022/08/06 01:49:12;;;;;;;3.40;2.40;;;27.30;64.30;;;;;;5133280;27;20035;-72
2022/08/06 01:51:38;;;;;;;3.92;2.00;;;27.30;64.60;;;;;;5119815;27;20032;-71
2022/08/06 01:54:07;;;;;;;2.45;2.22;;;27.30;65.00;;;;;;5112992;28;20031;-72
2022/08/06 01:56:36;;;;;;;2.63;2.10;;;27.20;65.50;;;;;;5112538;28;20476;-72
2022/08/06 01:59:05;;;;;;;2.08;1.88;;;27.20;65.20;;;;;;5112403;28;20028;-72
2022/08/06 02:01:33;;;;;;;2.38;1.98;;;27.10;65.80;;;;;;5113183;28;20028;-72
2022/08/06 02:04:00;;;;;;;4.13;2.25;;;27.10;66.00;;;;;;5112237;28;20020;-71
2022/08/06 02:06:32;;;;;;;2.00;1.90;;;27.00;66.40;;;;;;5111993;28;20036;-72
2022/08/06 02:09:05;;;;;;;2.80;1.92;;;26.90;66.70;;;;;;5113048;28;20080;-70
2022/08/06 02:11:34;;;;;;;2.42;2.15;;;26.90;67.20;;;;;;5112243;28;20420;-72
2022/08/06 02:14:01;;;;;;;2.50;2.00;;;26.80;67.80;;;;;;5112552;27;20028;-70
2022/08/06 02:16:33;;;;;;;2.38;2.00;;;26.70;68.10;;;;;;5114128;27;20109;-68
2022/08/06 02:19:00;;;;;;;3.40;2.17;;;26.60;68.70;;;;;;5112333;28;20040;-69
2022/08/06 02:21:27;;;;;;;3.20;1.77;;;26.50;69.10;;;;;;5111959;28;20032;-69
2022/08/06 02:23:54;;;;;;;4.18;2.20;;;26.40;69.50;;;;;;5111903;28;20367;-70
2022/08/06 02:26:21;;;;;;;2.20;1.98;;;26.30;70.20;;;;;;5112206;28;20019;-69
2022/08/06 02:28:49;;;;;;;3.58;1.92;;;26.30;70.30;;;;;;5112066;28;20426;-70
2022/08/06 02:31:14;;;;;;;5.28;2.20;;;26.20;71.50;;;;;;5112003;28;20476;-68
2022/08/06 02:33:40;;;;;;;2.20;1.65;;;26.20;71.70;;;;;;5112671;28;20110;-68
2022/08/06 02:36:17;;;;;;;2.97;1.95;;;26.10;72.40;;;;;;5112327;28;20426;-67
2022/08/06 02:38:55;;;;;;;4.18;1.98;;;25.90;74.00;;;;;;5112819;28;20032;-70
2022/08/06 02:41:28;;;;;;;2.05;1.95;;;25.80;75.30;;;;;;5112621;28;20139;-68
2022/08/06 02:44:02;;;;;;;2.03;1.83;;;25.60;76.50;;;;;;5112430;28;20052;-67
2022/08/06 02:46:37;;;;;;;5.28;2.13;;;25.60;77.60;;;;;;5112404;28;20026;-62
2022/08/06 02:49:16;;;;;;;1.95;1.70;;;25.40;79.10;;;;;;5112409;28;20194;-68
2022/08/06 02:51:51;;;;;;;2.55;2.03;;;25.30;80.60;;;;;;5112684;28;20043;-70
2022/08/06 02:54:28;;;;;;;3.78;2.22;;;25.20;81.50;;;;;;5111983;28;20522;-72
2022/08/06 02:57:02;;;;;;;2.45;2.10;;;25.10;82.90;;;;;;5112052;28;20472;-72
2022/08/06 02:59:32;;;;;;;3.17;2.13;;;25.00;83.80;;;;;;5112773;28;20028;-80
2022/08/06 03:02:01;;;;;;;1.80;1.65;;;24.90;84.60;;;;;;5112211;28;20023;-76
2022/08/06 03:04:29;;;;;;;2.13;1.77;;;24.80;85.70;;;;;;5112491;28;20036;-79
2022/08/06 03:06:56;;;;;;;2.05;1.80;;;24.80;86.50;;;;;;5112544;28;20034;-72
2022/08/06 03:09:23;;;;;;;2.22;1.77;;;24.70;87.00;;;;;;5094211;28;20103;-82
2022/08/06 03:11:50;;;;;;;1.95;1.83;;;24.70;88.30;;;;;;5112072;28;20028;-78
2022/08/06 03:14:17;;;;;;;2.08;1.77;;;24.60;89.00;;;;;;5093760;28;20380;-77
2022/08/06 03:16:44;;;;;;;3.58;2.03;;;24.50;89.80;;;;;;5112065;28;20507;-75
2022/08/06 03:19:11;;;;;;;2.30;1.92;;;24.50;90.30;;;;;;5115211;28;20074;-75
2022/08/06 03:21:38;;;;;;;3.08;1.85;;;24.50;90.70;;;;;;5132640;28;20125;-75
2022/08/06 03:24:05;;;;;;;1.63;1.52;;;24.40;90.90;;;;;;5113489;28;20427;-74
2022/08/06 03:26:31;;;;;;;3.95;2.10;;;24.40;91.20;;;;;;5132237;28;20027;-74
2022/08/06 03:29:00;;;;;;;2.60;1.88;;;24.40;91.50;;;;;;5133205;27;20489;-74
2022/08/06 03:31:27;;;;;;;2.50;2.30;;;24.40;91.80;;;;;;5136039;27;20039;-71
2022/08/06 03:33:53;;;;;;;2.33;2.00;;;24.30;91.90;;;;;;5136233;27;20039;-71
2022/08/06 03:36:21;;;;;;;2.00;1.90;;;24.30;92.30;;;;;;5135236;27;20027;-71
2022/08/06 03:38:58;;;;;;;2.88;2.10;;;24.20;92.70;;;;;;5136161;27;20046;-71
2022/08/06 03:41:29;;;;;;;2.45;2.25;;;24.10;93.40;;;;;;5135705;27;20034;-71
2022/08/06 03:43:55;;;;;;;2.67;2.47;;;24.10;94.00;;;;;;5135606;27;20471;-71
2022/08/06 03:46:50;;;;;;;4.40;2.20;;;24.00;94.60;;;;;;5133101;27;20027;-71
2022/08/06 03:49:42;;;;;;;2.35;2.00;;;23.90;95.20;;;;;;5071401;28;20479;-71
2022/08/06 03:52:12;;;;;;;2.25;2.05;;;23.90;95.70;;;;;;5110477;28;20062;-71
2022/08/06 03:54:43;;;;;;;2.38;2.17;;;23.80;95.90;;;;;;5114191;28;20440;-71
2022/08/06 03:57:13;;;;;;;2.58;2.38;;;23.80;96.20;;;;;;5113762;28;20054;-72
2022/08/06 03:59:41;;;;;;;3.30;2.15;;;23.70;96.50;;;;;;5114230;28;20027;-71
2022/08/06 04:02:08;;;;;;;3.50;2.50;;;23.70;97.00;;;;;;5114029;28;20103;-71
2022/08/06 04:04:35;;;;;;;2.50;2.03;;;23.70;97.10;;;;;;5115502;28;20049;-72
2022/08/06 04:07:02;;;;;;;2.85;2.22;;;23.70;97.20;;;;;;5114714;28;20124;-70
2022/08/06 04:09:32;;;;;;;3.20;2.55;;;23.70;97.20;;;;;;5115442;28;20023;-72
2022/08/06 04:11:59;;;;;;;3.28;2.15;;;23.70;97.20;;;;;;5115206;28;20469;-72
2022/08/06 04:14:26;;;;;;;3.08;2.53;;;23.80;97.10;;;;;;5114712;28;20019;-72
2022/08/06 04:16:53;;;;;;;2.42;2.22;;;23.80;97.00;;;;;;5115283;28;20032;-73
2022/08/06 04:19:19;;;;;;;3.67;2.15;;;23.80;96.90;;;;;;5114486;28;20032;-72
2022/08/06 04:21:46;;;;;;;3.83;2.63;;;23.80;96.90;;;;;;5117410;27;20422;-72
2022/08/06 04:24:13;;;;;;;2.38;2.00;;;23.80;97.00;;;;;;5114619;28;20031;-72
2022/08/06 04:26:41;;;;;;;3.25;2.67;;;23.80;97.00;;;;;;5114928;28;20059;-72
2022/08/06 04:29:10;;;;;;;2.08;1.88;;;23.80;96.80;;;;;;5114982;28;20054;-72
2022/08/06 04:31:38;;;;;;;3.10;2.35;;;23.80;97.00;;;;;;5114817;28;20036;-72
2022/08/06 04:34:04;;;;;;;3.50;2.60;;;23.80;97.00;;;;;;5114240;28;20098;-70
2022/08/06 04:36:30;;;;;;;3.55;2.30;;;23.80;96.80;;;;;;5115357;28;20120;-72
2022/08/06 04:38:56;;;;;;;4.93;2.55;;;23.90;96.70;;;;;;5114513;28;20504;-72
2022/08/06 04:41:22;;;;;;;3.22;2.47;;;24.00;96.60;;;;;;5114251;28;20141;-72
2022/08/06 04:43:49;;;;;;;4.32;2.63;;;24.00;96.50;;;;;;5114850;28;20372;-72
2022/08/06 04:46:15;;;;;;;2.42;2.00;;;24.10;96.30;;;;;;5114192;28;20035;-72
2022/08/06 04:48:41;;;;;;;3.17;2.80;;;24.10;95.90;;;;;;5114794;28;20102;-72
2022/08/06 04:51:07;;;;;;;4.63;2.38;;;24.20;95.80;;;;;;5114082;28;20119;-71
2022/08/06 04:53:38;;;;;;;3.97;2.85;;;24.10;95.80;;;;;;5114550;28;20024;-71
2022/08/06 04:56:05;;;;;;;2.40;2.20;;;24.10;95.90;;;;;;5117486;27;20023;-71
2022/08/06 04:58:32;;;;;;;3.08;2.78;;;24.20;95.90;;;;;;5135078;27;20023;-70
2022/08/06 05:00:57;;;;;;;3.50;2.58;;;24.10;96.00;;;;;;5124376;27;20114;-69
2022/08/06 05:03:23;;;;;;;2.80;2.33;;;24.10;96.20;;;;;;5126547;27;20444;-70
2022/08/06 05:06:08;;;;;;;4.90;2.85;;;24.10;96.30;;;;;;5123361;27;20027;-71
2022/08/06 05:08:38;;;;;;;2.30;2.10;;;24.10;96.40;;;;;;5128611;27;20118;-73
2022/08/06 05:11:15;;;;;;;3.03;2.72;;;24.10;96.60;;;;;;5117081;27;20074;-73
2022/08/06 05:13:44;;;;;;;2.58;2.38;;;24.10;96.60;;;;;;5133181;27;20019;-80
2022/08/06 05:16:12;;;;;;;3.35;2.85;;;24.10;96.70;;;;;;5133892;27;20096;-75
2022/08/06 05:18:57;;;;;;;4.70;3.00;;;24.10;96.70;;;;;;5119116;27;20028;-75
2022/08/06 05:21:28;;;;;;;2.45;2.25;;;24.00;96.70;;;;;;5118045;27;20031;-72
2022/08/06 05:23:55;;;;;;;4.72;2.65;;;24.00;97.00;;;;;;5125719;27;20024;-73
2022/08/06 05:26:21;;;;;;;3.58;2.53;;;24.00;97.00;;;;;;5126207;27;20043;-71
2022/08/06 05:28:47;;;;;;;2.47;2.28;;;24.00;96.80;;;;;;5118640;27;20039;-71
2022/08/06 05:31:13;;;;;;;4.72;3.00;;;24.00;96.90;;;;;;5130146;27;20369;-70
2022/08/06 05:33:40;;;;;;;2.60;2.40;;;24.00;97.00;;;;;;5120418;27;20055;-70
2022/08/06 05:36:11;;;;;;;3.45;2.47;;;23.90;97.00;;;;;;5123253;27;20027;-72
2022/08/06 05:38:37;;;;;;;;;;;24.00;96.90;;;;;;5128988;27;20023;-70
2022/08/06 05:41:05;;;;;;;4.57;2.03;;;24.00;97.00;;;;;;5116828;27;19904;-69
2022/08/06 05:43:31;;;;;;;2.65;2.45;;;24.00;97.10;;;;;;5129247;27;20101;-70
2022/08/06 05:46:04;;;;;;;2.92;2.55;;;24.10;96.70;;;;;;5123083;27;20020;-70
2022/08/06 05:48:34;;;;;;;2.83;2.33;;;24.10;96.70;;;;;;5126777;27;20076;-69
2022/08/06 05:51:21;;;;;;;3.33;3.03;;;24.10;96.40;;;;;;5127323;27;20483;-68
2022/08/06 05:53:57;;;;;;;2.30;2.08;;;24.20;96.50;;;;;;5099791;27;20023;-68
2022/08/06 05:56:30;;;;;;;3.08;2.78;;;24.20;96.10;;;;;;5124770;27;20023;-68
2022/08/06 05:59:04;;;;;;;6.10;2.60;;;24.30;95.90;;;;;;5126787;27;20440;-68
2022/08/06 06:01:31;;;;;;;2.85;2.50;;;24.30;95.90;;;;;;5116995;27;20027;-69
2022/08/06 06:03:58;;;;;;;4.60;2.88;;;24.20;96.00;;;;;;5111927;27;20483;-69
2022/08/06 06:06:24;;;;;;;3.25;2.70;;;24.30;95.80;;;;;;5129760;27;20127;-70
2022/08/06 06:08:49;;;;;;;4.00;2.85;;;24.30;95.80;;;;;;5116185;27;20024;-70
2022/08/06 06:11:17;;;;;;;3.67;3.17;;;24.40;95.70;;;;;;5126319;27;20035;-71
2022/08/06 06:13:43;;;;;;;2.60;2.40;;;24.40;95.50;;;;;;5123095;27;20100;-70
2022/08/06 06:16:31;;;;;;;3.35;3.05;;;24.50;95.30;;;;;;5126781;27;20015;-71
2022/08/06 06:19:14;;;;;;;3.70;2.65;;;24.40;95.10;;;;;;5116936;27;20032;-70
2022/08/06 06:21:59;;;;;;;2.60;2.28;;;24.40;95.40;;;;;;5118321;27;20042;-70
2022/08/06 06:24:35;;;;;;;3.47;2.72;;;24.50;95.30;;;;;;5123234;27;20481;-73
2022/08/06 06:27:07;;;;;;;2.78;2.55;;;24.50;95.10;;;;;;5133439;27;20131;-71
2022/08/06 06:30:02;;;;;;;3.22;2.92;;;24.50;95.10;;;;;;5129416;27;20043;-71
2022/08/06 06:33:00;;;;;;;7.30;2.78;;;24.70;94.90;;;;;;5124090;27;20050;-71
2022/08/06 06:35:53;;;;;;;3.35;2.60;;;24.80;94.50;;;;;;5111776;28;20040;-71
2022/08/06 06:38:40;;;;;;;2.95;2.53;;;24.90;94.30;;;;;;5112469;28;20019;-71
2022/08/06 06:41:16;;;;;;;3.35;2.83;;;25.00;94.00;;;;;;5112899;28;20032;-71
2022/08/06 06:43:55;;;;;;;2.85;2.53;;;25.20;93.30;;;;;;5113005;28;20034;-71
2022/08/06 06:46:39;;;;;;;3.85;2.88;;;25.20;92.90;;;;;;5112304;28;20050;-72
2022/08/06 06:49:24;;;;;;;2.75;2.50;;;25.20;92.30;;;;;;5112780;28;20072;-71
2022/08/06 06:51:56;;;;;;;3.08;2.45;;;25.30;92.40;;;;;;5112648;28;20031;-73
2022/08/06 06:54:35;;;;;;;4.68;3.08;;;25.30;92.70;;;;;;5115065;28;20030;-72
2022/08/06 06:57:03;;;;;;;3.33;2.55;;;25.30;93.10;;;;;;5124088;28;20030;-73
2022/08/06 06:59:38;;;;;;;2.88;2.53;;;25.40;93.60;;;;;;5112051;28;20047;-73
2022/08/06 07:02:05;;;;;;;3.03;2.70;;;25.30;94.70;;;;;;5112732;28;20032;-74
2022/08/06 07:04:34;;;;;;;3.05;2.60;;;25.10;94.20;;;;;;5116087;28;20036;-73
2022/08/06 07:07:03;;;;;;;3.67;2.10;;;25.00;94.60;;;;;;5116365;28;20417;-73
2022/08/06 07:09:33;;;;;;;3.72;2.13;;;24.90;94.50;;;;;;5116143;28;20020;-72
2022/08/06 07:12:00;;;;;;;1.92;1.58;;;24.80;94.80;;;;;;5116514;28;20110;-73
2022/08/06 07:14:27;;;;;;;2.42;1.80;;;24.80;93.90;;;;;;5115971;28;20023;-73
2022/08/06 07:16:55;;;;;;;2.50;1.80;;;24.80;93.60;;;;;;5116541;28;20035;-73
2022/08/06 07:19:23;;;;;;;2.15;1.60;;;24.80;93.50;;;;;;5115939;28;20031;-74
2022/08/06 07:21:50;;;;;;;3.25;1.63;;;24.70;93.40;;;;;;5116410;28;20038;-74
2022/08/06 07:24:17;;;;;;;1.60;1.50;;;24.60;93.70;;;;;;5115866;28;20072;-73
2022/08/06 07:26:44;;;;;;;1.42;1.23;;;24.50;94.20;;;;;;5116168;28;20069;-74
2022/08/06 07:29:12;;;;;;;1.35;1.25;;;24.50;94.30;;;;;;5115999;28;20043;-73
2022/08/06 07:31:39;;;;;;;1.55;1.45;;;24.50;94.10;;;;;;5115819;28;20028;-74
2022/08/06 07:34:06;;;;;;;3.95;2.38;;;24.40;93.80;;;;;;5116691;27;20408;-73
2022/08/06 07:36:35;;;;;;;1.50;1.40;;;24.40;94.00;;;;;;5133819;27;20034;-73
2022/08/06 07:39:05;;;;;;;1.42;1.27;;;24.40;93.50;;;;;;5117921;27;20325;-73
2022/08/06 07:41:34;;;;;;;1.77;1.25;;;24.30;93.60;;;;;;5136082;27;20027;-73
2022/08/06 07:44:01;;;;;;;1.77;1.20;;;24.30;93.80;;;;;;5136559;27;20024;-73
2022/08/06 07:46:33;;;;;;;1.25;1.15;;;24.30;93.70;;;;;;5135991;27;20459;-74
2022/08/06 07:49:04;;;;;;;1.33;1.02;;;24.20;93.80;;;;;;5136525;27;20071;-73
2022/08/06 07:51:34;;;;;;;1.63;1.38;;;24.20;93.70;;;;;;5135812;27;20144;-74
2022/08/06 07:54:02;;;;;;;1.90;1.02;;;24.10;93.70;;;;;;5136578;27;20058;-74
2022/08/06 07:56:28;;;;;;;2.55;1.00;;;24.10;94.20;;;;;;5135842;27;20015;-73
2022/08/06 07:58:55;;;;;;;1.17;1.00;;;24.20;93.60;;;;;;5135745;27;20031;-73
2022/08/06 08:01:22;;;;;;;1.33;0.93;;;24.20;93.80;;;;;;5135445;27;20467;-72
2022/08/06 08:06:33;;;;;;;1.67;1.15;;;24.20;93.80;;;;;;5135595;27;20355;-73
2022/08/06 08:09:16;;;;;;;1.17;0.98;;;24.10;93.50;;;;;;5135865;27;20020;-72
2022/08/06 08:11:44;;;;;;;0.90;0.80;;;24.10;93.20;;;;;;5135634;27;20031;-73
2022/08/06 08:14:12;;;;;;;0.70;0.70;;;24.10;93.20;;;;;;5135033;27;20411;-74
2022/08/06 08:16:40;;;;;;;1.05;0.88;;;24.00;93.00;;;;;;5134978;27;20451;-73
2022/08/06 08:19:31;;;;;;;0.60;0.60;;;24.00;93.20;;;;;;5135743;27;20028;-74
2022/08/06 08:21:59;;;;;;;0.60;0.60;;;23.90;92.80;;;;;;5135594;27;20038;-73
2022/08/06 08:24:27;;;;;;;1.70;0.80;;;23.90;92.90;;;;;;5135182;27;20031;-72
2022/08/06 08:26:54;;;;;;;0.60;0.60;;;23.80;92.80;;;;;;5116979;27;20023;-72
2022/08/06 08:29:19;;;;;;;0.80;0.80;;;23.70;93.10;;;;;;5134765;27;20043;-71
2022/08/06 08:31:45;;;;;;;0.80;0.63;;;23.60;93.30;;;;;;5131826;27;20117;-73
2022/08/06 08:34:11;;;;;;;0.50;0.50;;;23.70;93.40;;;;;;5135239;27;20031;-73
2022/08/06 08:36:40;;;;;;;0.90;0.80;;;23.60;93.30;;;;;;5134802;27;20027;-73
2022/08/06 08:39:06;;;;;;;0.40;0.40;;;23.60;93.30;;;;;;5135381;27;20055;-73
2022/08/06 08:41:39;;;;;;;0.95;0.80;;;23.60;93.50;;;;;;5134838;27;20467;-73
2022/08/06 08:44:07;;;;;;;1.20;0.63;;;23.60;93.30;;;;;;5135437;27;20331;-73
2022/08/06 08:46:37;;;;;;;1.20;0.60;;;23.60;93.30;;;;;;5134777;27;20027;-72
2022/08/06 08:49:05;;;;;;;0.90;0.70;;;23.50;93.40;;;;;;5135257;27;20378;-73
2022/08/06 08:51:34;;;;;;;0.75;0.70;;;23.40;93.50;;;;;;5134716;27;20065;-72
2022/08/06 08:54:05;;;;;;;0.80;0.75;;;23.30;93.50;;;;;;5134886;27;20118;-72
2022/08/06 08:56:32;;;;;;;1.07;0.60;;;23.30;93.70;;;;;;5134691;27;20030;-72
2022/08/06 08:58:58;;;;;;;0.73;0.60;;;23.30;93.10;;;;;;5134962;27;20287;-73
2022/08/06 09:01:24;;;;;;;0.45;0.40;;;23.30;93.10;;;;;;5116064;27;20071;-72
2022/08/06 09:03:50;;;;;;;0.63;0.50;;;23.40;93.00;;;;;;5134755;27;20380;-72
2022/08/06 09:06:16;;;;;;;0.63;0.55;;;23.40;92.10;;;;;;5134702;27;20038;-73
2022/08/06 09:08:44;;;;;;;0.80;0.40;;;23.50;92.90;;;;;;5134585;27;20019;-73
2022/08/06 09:11:10;;;;;;;1.30;1.10;;;23.60;91.80;;;;;;5134869;27;20038;-72
2022/08/06 09:13:35;;;;;;;0.80;0.60;;;23.70;91.30;;;;;;5134438;27;20023;-73
2022/08/06 09:16:02;;;;;;;0.68;0.57;;;23.80;91.10;;;;;;5134796;27;20404;-72
2022/08/06 09:18:27;;;;;;;0.60;0.60;;;23.80;91.10;;;;;;5134278;27;20023;-72
2022/08/06 09:20:54;;;;;;;0.55;0.50;;;23.90;91.20;;;;;;5116048;27;20026;-72
2022/08/06 09:23:20;;;;;;;0.45;0.40;;;23.90;90.60;;;;;;5134597;27;20066;-72
2022/08/06 09:25:48;;;;;;;0.60;0.60;;;23.90;90.40;;;;;;5133689;27;20487;-73
2022/08/06 09:28:31;;;;;;;0.50;0.50;;;23.90;90.60;;;;;;5134050;27;20028;-73
2022/08/06 09:31:09;;;;;;;0.98;0.63;;;23.90;90.50;;;;;;5134231;27;20494;-73
2022/08/06 09:33:37;;;;;;;0.50;0.50;;;23.80;91.00;;;;;;5119574;27;20032;-73
2022/08/06 09:36:04;;;;;;;1.38;0.88;;;23.90;92.40;;;;;;5113876;28;20027;-73
2022/08/06 09:38:30;;;;;;;1.23;0.80;;;23.90;93.20;;;;;;5113386;28;20047;-72
2022/08/06 09:41:10;;;;;;;0.68;0.68;;;23.90;93.60;;;;;;5113681;28;20036;-73
2022/08/06 09:43:37;;;;;;;1.20;0.70;;;23.90;93.90;;;;;;5113100;28;20031;-73
2022/08/06 09:46:04;;;;;;;1.25;0.82;;;24.00;92.60;;;;;;5113641;28;20081;-74
2022/08/06 09:48:30;;;;;;;0.60;0.60;;;23.90;93.10;;;;;;5113160;28;20506;-74
2022/08/06 09:50:56;;;;;;;1.60;0.80;;;23.90;93.40;;;;;;5113189;28;20071;-74
2022/08/06 09:53:22;;;;;;;0.43;0.43;;;23.90;93.00;;;;;;5113029;28;20038;-73
2022/08/06 09:55:50;;;;;;;0.60;0.60;;;23.70;93.10;;;;;;5112825;28;20450;-72
2022/08/06 09:58:37;;;;;;;0.60;0.60;;;23.60;92.90;;;;;;5113276;28;20414;-72
2022/08/06 10:01:18;;;;;;;1.10;0.60;;;23.60;92.80;;;;;;5113033;28;20062;-73
2022/08/06 10:03:44;;;;;;;0.65;0.52;;;23.60;92.20;;;;;;5113179;28;20023;-72
2022/08/06 10:06:12;;;;;;;0.40;0.40;;;23.50;91.30;;;;;;5113701;28;20028;-72
2022/08/06 10:08:38;;;;;;;0.50;0.50;;;23.40;92.20;;;;;;5113635;28;20094;-72
2022/08/06 10:11:05;;;;;;;0.45;0.45;;;23.30;91.60;;;;;;5113680;28;20448;-72
2022/08/06 10:13:31;;;;;;;0.70;0.70;;;23.30;91.50;;;;;;5112981;28;20376;-72
2022/08/06 10:16:00;;;;;;;1.40;0.60;;;23.10;91.80;;;;;;5113313;28;20023;-72
2022/08/06 10:18:28;;;;;;;0.40;0.40;;;23.10;91.80;;;;;;5113072;28;20317;-73
2022/08/06 10:21:09;;;;;;;0.50;0.50;;;22.90;91.60;;;;;;5094857;28;20034;-72
2022/08/06 10:23:38;;;;;;;0.47;0.47;;;22.80;91.80;;;;;;5114651;27;20022;-72
2022/08/06 10:26:07;;;;;;;0.57;0.52;;;22.80;92.40;;;;;;5113040;28;20035;-72
2022/08/06 10:28:36;;;;;;;0.80;0.60;;;22.70;92.20;;;;;;5112289;28;20026;-74
2022/08/06 10:31:08;;;;;;;1.38;0.60;;;22.80;92.30;;;;;;5112792;28;20088;-72
2022/08/06 10:34:10;;;;;;;1.27;0.50;;;22.80;92.40;;;;;;5112412;28;20030;-74
2022/08/06 10:36:43;;;;;;;0.93;0.50;;;22.90;92.10;;;;;;4993172;28;20058;-73
2022/08/06 10:39:09;;;;;;;0.68;0.68;;;22.80;91.80;;;;;;5097654;28;20048;-73
2022/08/06 10:41:38;;;;;;;0.90;0.55;;;22.80;91.60;;;;;;5112457;28;20048;-73
2022/08/06 10:44:04;;;;;;;0.85;0.60;;;22.80;91.70;;;;;;5112690;28;20024;-73
2022/08/06 10:46:31;;;;;;;1.48;0.80;;;22.90;91.60;;;;;;5112104;28;20030;-72
2022/08/06 10:48:58;;;;;;;0.70;0.70;;;22.90;91.00;;;;;;5094417;28;20368;-72
2022/08/06 10:51:25;;;;;;;0.77;0.77;;;23.00;90.30;;;;;;5112741;28;20047;-72
2022/08/06 10:53:51;;;;;;;0.80;0.70;;;23.00;90.10;;;;;;5112178;28;20024;-73
2022/08/06 10:56:17;;;;;;;0.73;0.73;;;23.10;89.70;;;;;;5113041;28;20057;-72
2022/08/06 10:58:44;;;;;;;1.10;1.00;;;23.20;89.60;;;;;;5112275;28;20493;-74
2022/08/06 11:01:13;;;;;;;1.42;0.90;;;23.30;89.70;;;;;;5112964;28;20028;-73
2022/08/06 11:04:03;;;;;;;1.08;1.00;;;23.40;87.50;;;;;;5112255;28;20020;-72
2022/08/06 11:06:47;;;;;;;1.50;1.10;;;23.50;86.70;;;;;;5112658;28;20051;-74
2022/08/06 11:09:18;;;;;;;0.82;0.80;;;23.50;85.70;;;;;;5112535;28;20046;-73
2022/08/06 11:11:58;;;;;;;1.55;0.90;;;23.60;84.50;;;;;;5112181;28;20031;-75
2022/08/06 11:14:25;;;;;;;1.30;1.15;;;23.70;84.70;;;;;;5112460;28;20020;-72
2022/08/06 11:16:58;;;;;;;1.25;1.15;;;23.70;84.50;;;;;;5112011;28;20028;-73
2022/08/06 11:19:40;;;;;;;1.30;1.20;;;23.70;83.70;;;;;;5112464;28;20016;-72
2022/08/06 11:22:06;;;;;;;1.70;1.27;;;23.60;83.60;;;;;;5112535;28;20093;-73
2022/08/06 11:24:32;;;;;;;1.35;1.25;;;23.50;84.00;;;;;;5111990;28;20092;-73
2022/08/06 11:26:58;;;;;;;2.05;1.40;;;23.60;84.30;;;;;;5113216;28;20452;-72
2022/08/06 11:29:24;;;;;;;1.92;1.25;;;23.70;83.70;;;;;;5131640;28;20109;-72
2022/08/06 11:31:50;;;;;;;1.05;0.95;;;23.70;83.50;;;;;;5132364;28;20038;-72
2022/08/06 11:34:19;;;;;;;1.33;1.20;;;23.70;84.30;;;;;;5132790;28;20023;-72
2022/08/06 11:36:50;;;;;;;1.55;1.27;;;23.70;83.70;;;;;;5132461;28;20015;-73
2022/08/06 11:39:20;;;;;;;1.00;0.90;;;23.90;83.20;;;;;;5133066;28;20463;-73
2022/08/06 11:41:50;;;;;;;1.20;1.10;;;23.90;83.30;;;;;;5132333;28;20035;-73
2022/08/06 11:44:18;;;;;;;1.65;1.25;;;23.90;82.20;;;;;;5132896;28;20060;-73
2022/08/06 11:46:46;;;;;;;1.73;1.00;;;23.90;83.10;;;;;;5132407;28;20027;-74
2022/08/06 11:49:20;;;;;;;1.40;1.30;;;23.90;82.20;;;;;;5133102;27;20023;-73
2022/08/06 11:51:46;;;;;;;1.48;1.05;;;23.90;82.90;;;;;;5136073;27;20066;-74
2022/08/06 11:54:25;;;;;;;1.42;1.15;;;23.90;82.80;;;;;;5136454;27;20376;-79
2022/08/06 11:57:06;;;;;;;1.65;1.17;;;23.90;82.90;;;;;;5136073;27;20069;-73
2022/08/06 11:59:49;;;;;;;1.70;1.00;;;23.90;83.10;;;;;;5136418;27;20047;-66
2022/08/06 12:02:36;;;;;;;2.05;1.30;;;24.00;83.70;;;;;;5136382;27;20049;-67
2022/08/06 12:05:03;;;;;;;1.65;1.20;;;24.10;83.40;;;;;;5136338;27;20110;-67
2022/08/06 12:07:32;;;;;;;1.00;0.90;;;24.10;82.20;;;;;;5136085;27;20110;-68
2022/08/06 12:10:12;;;;;;;1.88;1.33;;;24.20;82.70;;;;;;5135490;27;20050;-68
2022/08/06 12:12:42;;;;;;;1.10;0.98;;;24.20;81.70;;;;;;5135679;27;20046;-70
2022/08/06 12:15:22;;;;;;;1.10;1.00;;;24.30;82.60;;;;;;5136083;27;20016;-70
2022/08/06 12:17:54;;;;;;;1.55;1.05;;;24.40;81.10;;;;;;5135384;27;20486;-71
2022/08/06 12:20:31;;;;;;;1.73;1.02;;;24.40;80.40;;;;;;5136014;27;20030;-71
2022/08/06 12:22:57;;;;;;;1.10;1.00;;;24.50;80.80;;;;;;5135480;27;20023;-70
2022/08/06 12:25:30;;;;;;;1.10;0.95;;;24.40;79.70;;;;;;5135888;27;20023;-71
2022/08/06 12:27:56;;;;;;;2.72;0.93;;;24.50;79.70;;;;;;5134778;27;20076;-69
2022/08/06 12:30:22;;;;;;;1.42;1.33;;;24.30;79.90;;;;;;5133129;27;20475;-69
2022/08/06 12:32:48;;;;;;;1.45;1.20;;;24.40;80.50;;;;;;5116957;27;20364;-70
2022/08/06 12:35:14;;;;;;;2.15;1.08;;;24.40;80.30;;;;;;5135585;27;20034;-66
2022/08/06 12:37:41;;;;;;;1.33;1.23;;;24.30;79.80;;;;;;5135125;27;20080;-69
2022/08/06 12:40:27;;;;;;;1.92;1.10;;;24.30;80.40;;;;;;5135623;27;20031;-73
2022/08/06 12:43:14;;;;;;;1.30;1.02;;;24.40;80.50;;;;;;5135184;27;20023;-73
2022/08/06 12:45:40;;;;;;;3.08;1.45;;;24.40;80.20;;;;;;5135136;27;20027;-73
2022/08/06 12:48:10;;;;;;;1.23;1.17;;;24.40;79.10;;;;;;5135545;27;20098;-72
2022/08/06 12:50:38;;;;;;;1.35;1.20;;;24.40;79.40;;;;;;5135386;27;20035;-71
2022/08/06 12:53:18;;;;;;;1.77;1.23;;;24.40;79.40;;;;;;5134783;27;20375;-71
2022/08/06 12:55:54;;;;;;;1.20;1.10;;;24.40;79.30;;;;;;5134580;27;20121;-73
2022/08/06 12:58:34;;;;;;;2.95;1.17;;;24.40;79.40;;;;;;5135272;27;20129;-71
2022/08/06 13:01:02;;;;;;;1.50;1.20;;;24.50;79.90;;;;;;5134406;27;20051;-72
2022/08/06 13:03:29;;;;;;;1.55;1.35;;;24.50;78.80;;;;;;5135152;27;20096;-72
2022/08/06 13:05:59;;;;;;;1.42;1.25;;;24.60;77.70;;;;;;5134705;27;20451;-72
2022/08/06 13:08:26;;;;;;;3.53;1.65;;;24.60;78.00;;;;;;5135110;27;20077;-71